Time;durP1;ratioP1;P1;durP2;ratioP2;P2;SDS_P1;SDS_P2;PMS_P1;PMS_P2;Temp;Humidity;BMP_temperature;BMP_pressure;BME280_temperature;BME280_humidity;BME280_pressure;Samples;Min_cycle;Max_cycle;Signal;HPM_P1;HPM_P2
2021/06/28 00:01:09;;;;;;;4.30;3.17;;;;;;;24.69;52.46;101094.13;5053916;28;20037;-59
2021/06/28 00:03:35;;;;;;;3.75;2.92;;;;;;;24.70;52.41;101087.59;5036504;28;20104;-58
2021/06/28 00:06:00;;;;;;;6.32;4.07;;;;;;;24.67;52.58;101087.19;5054335;28;20064;-59
2021/06/28 00:08:26;;;;;;;5.30;3.83;;;;;;;24.65;52.17;101090.13;5035653;28;20033;-59
2021/06/28 00:10:51;;;;;;;7.45;3.67;;;;;;;24.65;53.04;101084.63;5053840;28;20029;-60
2021/06/28 00:13:17;;;;;;;6.68;3.78;;;;;;;24.64;51.99;101093.09;5036084;28;20035;-59
2021/06/28 00:15:42;;;;;;;5.15;3.08;;;;;;;24.62;52.52;101090.53;5036220;28;20059;-60
2021/06/28 00:18:09;;;;;;;4.82;3.00;;;;;;;24.60;52.15;101087.19;5035902;28;20024;-59
2021/06/28 00:20:35;;;;;;;6.25;2.92;;;;;;;24.60;52.37;101094.56;5053456;28;20033;-60
2021/06/28 00:23:02;;;;;;;7.60;3.53;;;;;;;24.59;52.29;101085.53;5035593;28;20159;-59
2021/06/28 00:25:28;;;;;;;7.40;3.83;;;;;;;24.59;52.22;101085.53;5053934;28;20029;-59
2021/06/28 00:27:53;;;;;;;8.63;4.68;;;;;;;24.59;52.26;101091.00;5032075;28;20061;-58
2021/06/28 00:30:20;;;;;;;8.15;3.00;;;;;;;24.55;53.12;101081.50;5033326;28;20124;-59
2021/06/28 00:32:47;;;;;;;7.63;5.00;;;;;;;24.56;52.41;101085.94;5032612;28;20437;-58
2021/06/28 00:35:12;;;;;;;13.23;5.75;;;;;;;24.56;52.59;101079.63;5033711;28;20022;-60
2021/06/28 00:37:38;;;;;;;10.30;6.68;;;;;;;24.58;52.69;101072.88;5033579;28;20386;-60
2021/06/28 00:40:06;;;;;;;12.93;5.95;;;;;;;24.61;53.48;101072.44;5033590;28;20025;-59
2021/06/28 00:42:31;;;;;;;11.48;5.93;;;;;;;24.63;53.01;101070.31;5033276;28;20028;-59
2021/06/28 00:44:56;;;;;;;9.77;5.75;;;;;;;24.65;53.26;101059.16;5033840;28;20025;-59
2021/06/28 00:47:22;;;;;;;10.35;5.90;;;;;;;24.67;52.63;101062.53;5033390;28;20059;-59
2021/06/28 00:49:48;;;;;;;9.70;5.78;;;;;;;24.67;52.94;101055.16;5032643;28;20121;-59
2021/06/28 00:52:14;;;;;;;10.13;6.22;;;;;;;24.67;53.47;101044.19;5031951;28;20394;-60
2021/06/28 00:54:40;;;;;;;12.95;6.35;;;;;;;24.68;52.90;101037.63;5032319;28;20025;-60
2021/06/28 00:57:06;;;;;;;11.35;6.10;;;;;;;24.68;53.03;101040.38;5032261;28;20060;-60
2021/06/28 00:59:32;;;;;;;8.23;5.60;;;;;;;24.68;53.36;101034.88;5033406;28;20048;-59
2021/06/28 01:01:59;;;;;;;11.52;5.35;;;;;;;24.69;52.77;101033.84;5033374;28;20041;-59
2021/06/28 01:04:25;;;;;;;8.85;5.40;;;;;;;24.74;53.00;101045.00;5033613;28;20030;-59
2021/06/28 01:06:50;;;;;;;12.05;5.75;;;;;;;24.72;53.28;101049.84;5033610;28;20374;-58
2021/06/28 01:09:16;;;;;;;8.88;4.70;;;;;;;24.69;53.34;101063.97;5033254;28;20041;-58
2021/06/28 01:11:41;;;;;;;9.38;6.13;;;;;;;24.69;53.38;101077.69;5048381;28;20053;-60
2021/06/28 01:14:06;;;;;;;11.30;5.18;;;;;;;24.62;53.10;101068.63;5033027;28;20107;-58
2021/06/28 01:16:32;;;;;;;8.68;5.20;;;;;;;24.64;52.70;101082.97;5032351;28;20037;-58
2021/06/28 01:18:58;;;;;;;12.10;5.85;;;;;;;24.58;53.18;101083.81;5032052;28;20088;-60
2021/06/28 01:21:28;;;;;;;12.00;5.05;;;;;;;24.61;52.91;101088.03;5031826;28;20096;-59
2021/06/28 01:23:54;;;;;;;10.02;5.90;;;;;;;24.59;52.94;101088.25;5031852;28;20029;-60
2021/06/28 01:26:19;;;;;;;12.20;5.70;;;;;;;24.59;53.31;101096.47;5032331;28;20025;-59
2021/06/28 01:28:44;;;;;;;10.63;6.25;;;;;;;24.58;52.76;101105.75;5031428;28;20406;-60
2021/06/28 01:31:11;;;;;;;8.82;6.03;;;;;;;24.57;52.83;101109.53;5034604;28;20029;-59
2021/06/28 01:33:36;;;;;;;17.63;5.68;;;;;;;24.57;52.81;101104.03;5035562;28;20033;-59
2021/06/28 01:36:02;;;;;;;15.00;6.22;;;;;;;24.57;53.02;101098.56;5036655;28;20364;-59
2021/06/28 01:38:28;;;;;;;14.25;7.13;;;;;;;24.57;53.49;101093.09;5036660;28;20017;-59
2021/06/28 01:40:54;;;;;;;8.95;5.35;;;;;;;24.57;53.36;101098.56;5036329;28;20034;-59
2021/06/28 01:43:23;;;;;;;11.07;6.25;;;;;;;24.57;53.54;101105.94;5036516;28;20086;-59
2021/06/28 01:45:48;;;;;;;9.40;6.57;;;;;;;24.56;53.46;101112.50;5036562;28;20026;-59
2021/06/28 01:48:13;;;;;;;7.50;5.63;;;;;;;24.55;52.95;101110.81;5036545;28;20532;-59
2021/06/28 01:50:40;;;;;;;10.63;5.88;;;;;;;24.55;53.25;101117.13;5036998;28;20036;-60
2021/06/28 01:53:05;;;;;;;9.30;5.78;;;;;;;24.54;53.21;101107.22;5036608;28;20029;-59
2021/06/28 01:55:32;;;;;;;10.15;6.78;;;;;;;24.54;53.49;101111.88;5036300;28;20079;-59
2021/06/28 01:58:00;;;;;;;9.85;4.97;;;;;;;24.53;53.53;101113.75;5036021;28;20029;-60
2021/06/28 02:00:31;;;;;;;16.90;5.40;;;;;;;24.51;52.62;101115.84;5036353;28;20128;-59
2021/06/28 02:03:00;;;;;;;8.38;5.45;;;;;;;24.49;53.18;101119.88;5035077;28;20420;-59
2021/06/28 02:05:27;;;;;;;7.03;4.22;;;;;;;24.46;53.14;101118.41;5036135;28;20112;-60
2021/06/28 02:07:52;;;;;;;9.55;5.22;;;;;;;24.40;53.30;101099.25;5034957;28;20086;-59
2021/06/28 02:10:18;;;;;;;12.43;4.25;;;;;;;24.41;52.83;101104.50;5035691;28;20026;-60
2021/06/28 02:12:43;;;;;;;9.18;5.55;;;;;;;24.25;53.10;101081.16;5036011;28;20037;-58
2021/06/28 02:15:16;;;;;;;8.35;4.85;;;;;;;24.37;52.90;101107.88;5035984;28;20034;-59
2021/06/28 02:17:41;;;;;;;4.75;3.53;;;;;;;24.35;53.25;101105.34;5036252;28;20076;-59
2021/06/28 02:20:07;;;;;;;11.93;5.93;;;;;;;24.31;52.40;101107.69;5034610;28;20029;-59
2021/06/28 02:22:33;;;;;;;7.72;4.13;;;;;;;24.27;52.98;101108.31;5035583;28;20037;-59
2021/06/28 02:24:58;;;;;;;8.25;4.13;;;;;;;24.28;52.75;101110.00;5036019;28;20426;-59
2021/06/28 02:27:23;;;;;;;10.15;3.85;;;;;;;24.23;52.65;101104.31;5043315;28;20057;-59
2021/06/28 02:29:49;;;;;;;5.68;3.85;;;;;;;24.24;52.67;101104.09;5037518;28;20031;-59
2021/06/28 02:32:14;;;;;;;6.35;4.03;;;;;;;24.24;52.85;101098.63;5037424;28;20500;-60
2021/06/28 02:34:39;;;;;;;7.18;4.20;;;;;;;24.23;52.91;101090.63;5053939;28;20033;-59
2021/06/28 02:37:05;;;;;;;10.65;5.35;;;;;;;24.21;53.20;101079.88;5055396;28;20424;-59
2021/06/28 02:39:31;;;;;;;8.88;4.70;;;;;;;24.22;52.75;101084.31;5055388;28;20029;-59
2021/06/28 02:41:56;;;;;;;7.85;4.90;;;;;;;24.21;53.14;101087.25;5053936;28;20029;-59
2021/06/28 02:44:22;;;;;;;8.07;3.67;;;;;;;24.20;53.16;101085.56;5055014;28;20047;-59
2021/06/28 02:46:47;;;;;;;10.20;3.08;;;;;;;24.16;52.78;101085.16;5055214;28;20063;-59
2021/06/28 02:49:13;;;;;;;5.00;2.63;;;;;;;24.13;53.15;101082.00;5055206;28;20033;-59
2021/06/28 02:51:38;;;;;;;2.72;2.15;;;;;;;24.09;52.32;101084.28;5037615;28;20032;-59
2021/06/28 02:54:04;;;;;;;11.25;3.65;;;;;;;24.07;52.67;101091.00;5054765;28;20052;-59
2021/06/28 02:56:29;;;;;;;5.38;3.47;;;;;;;24.04;52.45;101081.31;5055100;28;20029;-59
2021/06/28 02:58:57;;;;;;;9.48;3.75;;;;;;;24.01;52.77;101069.97;5055102;28;20072;-59
2021/06/28 03:01:25;;;;;;;5.68;3.92;;;;;;;24.01;52.58;101087.22;5053799;28;20025;-58
2021/06/28 03:03:51;;;;;;;6.68;4.38;;;;;;;24.00;53.30;101076.50;5054630;28;20032;-59
2021/06/28 03:06:17;;;;;;;6.82;3.83;;;;;;;23.98;53.20;101076.69;5054907;28;20029;-59
2021/06/28 03:08:43;;;;;;;3.17;2.50;;;;;;;23.97;53.37;101076.91;5054948;28;20025;-59
2021/06/28 03:11:09;;;;;;;6.10;2.10;;;;;;;23.96;53.24;101077.94;5054956;28;20036;-59
2021/06/28 03:13:36;;;;;;;3.28;2.70;;;;;;;23.91;52.41;101075.00;5054653;28;20021;-59
2021/06/28 03:16:02;;;;;;;4.05;2.65;;;;;;;23.91;52.95;101069.53;5054559;28;20079;-60
2021/06/28 03:18:28;;;;;;;4.13;2.80;;;;;;;23.90;53.11;101078.81;5054586;28;20446;-58
2021/06/28 03:20:53;;;;;;;11.50;3.60;;;;;;;23.89;52.78;101075.22;5054807;28;20032;-59
2021/06/28 03:23:19;;;;;;;7.07;2.95;;;;;;;23.87;52.66;101073.75;5054386;28;20029;-59
2021/06/28 03:25:45;;;;;;;4.20;2.60;;;;;;;23.80;52.91;101061.94;5054728;28;20367;-60
2021/06/28 03:28:10;;;;;;;8.15;3.30;;;;;;;23.84;52.32;101075.03;5051646;28;20418;-59
2021/06/28 03:30:36;;;;;;;3.95;3.08;;;;;;;23.84;52.91;101079.66;5054079;28;20473;-59
2021/06/28 03:33:02;;;;;;;5.25;3.28;;;;;;;23.80;53.11;101072.91;5054494;28;20104;-58
2021/06/28 03:35:27;;;;;;;4.13;3.38;;;;;;;23.82;52.28;101084.47;5036951;28;20385;-58
2021/06/28 03:37:53;;;;;;;5.10;2.35;;;;;;;23.81;53.13;101088.28;5054322;28;20052;-59
2021/06/28 03:40:18;;;;;;;7.05;3.17;;;;;;;23.81;53.47;101093.75;5054256;28;20103;-59
2021/06/28 03:42:44;;;;;;;2.40;2.00;;;;;;;23.81;52.40;101080.06;5054228;28;20477;-58
2021/06/28 03:45:11;;;;;;;3.80;2.17;;;;;;;23.80;53.34;101078.38;5054394;28;20461;-59
2021/06/28 03:47:38;;;;;;;8.38;3.35;;;;;;;23.80;52.77;101072.91;5054192;28;20040;-59
2021/06/28 03:50:05;;;;;;;4.43;3.60;;;;;;;23.80;53.35;101067.44;5036217;28;20032;-58
2021/06/28 03:52:30;;;;;;;8.32;3.92;;;;;;;23.81;52.40;101069.97;5035984;28;20044;-58
2021/06/28 03:54:56;;;;;;;8.23;3.83;;;;;;;23.82;53.47;101077.09;5053841;28;20405;-58
2021/06/28 03:57:21;;;;;;;6.95;4.63;;;;;;;23.82;53.03;101088.06;5054046;28;20040;-58
2021/06/28 03:59:47;;;;;;;6.35;4.10;;;;;;;23.86;52.33;101086.59;5036061;28;20097;-58
2021/06/28 04:02:12;;;;;;;7.03;3.83;;;;;;;23.88;52.60;101080.91;5053753;28;20056;-59
2021/06/28 04:04:37;;;;;;;6.45;4.05;;;;;;;23.93;53.26;101084.69;5035791;28;20039;-58
2021/06/28 04:07:03;;;;;;;7.85;4.57;;;;;;;23.94;52.79;101069.97;5035786;28;20032;-58
2021/06/28 04:09:28;;;;;;;8.85;5.05;;;;;;;24.03;52.63;101074.19;5053485;28;20028;-58
2021/06/28 04:11:54;;;;;;;7.32;4.50;;;;;;;24.10;53.66;101066.81;5053526;28;20041;-59
2021/06/28 04:14:19;;;;;;;8.45;5.28;;;;;;;24.18;53.22;101082.19;5054029;28;20511;-59
2021/06/28 04:16:44;;;;;;;8.13;5.13;;;;;;;24.28;53.50;101088.09;5036197;28;20036;-59
2021/06/28 04:19:10;;;;;;;8.52;5.07;;;;;;;24.36;52.91;101079.66;5053785;28;20025;-59
2021/06/28 04:21:36;;;;;;;10.98;5.72;;;;;;;24.45;52.91;101070.16;5053689;28;20057;-59
2021/06/28 04:24:03;;;;;;;8.10;5.15;;;;;;;24.48;53.23;101068.91;5053671;28;20109;-59
2021/06/28 04:26:29;;;;;;;6.78;4.43;;;;;;;24.61;53.26;101075.19;5053605;28;20025;-58
2021/06/28 04:28:54;;;;;;;9.75;6.00;;;;;;;24.66;53.24;101069.88;5053121;28;20089;-58
2021/06/28 04:31:20;;;;;;;7.90;5.55;;;;;;;24.79;53.54;101061.66;5053313;28;20025;-59
2021/06/28 04:33:45;;;;;;;10.15;5.75;;;;;;;24.86;53.13;101059.75;5053525;28;20104;-59
2021/06/28 04:36:11;;;;;;;8.00;5.28;;;;;;;24.97;53.07;101071.94;5053505;28;20032;-58
2021/06/28 04:38:36;;;;;;;12.65;6.53;;;;;;;25.02;53.27;101069.38;5053505;28;20032;-58
2021/06/28 04:41:02;;;;;;;9.48;6.18;;;;;;;25.09;53.35;101075.69;5053416;28;20025;-59
2021/06/28 04:43:27;;;;;;;9.95;7.00;;;;;;;25.16;53.45;101075.63;5035352;28;20108;-59
2021/06/28 04:45:52;;;;;;;10.23;6.63;;;;;;;25.25;53.72;101079.81;5035311;28;20382;-58
2021/06/28 04:48:18;;;;;;;10.80;5.80;;;;;;;25.31;53.51;101084.41;5053261;28;20041;-58
2021/06/28 04:50:44;;;;;;;10.63;5.53;;;;;;;25.38;53.54;101079.72;5053647;28;20028;-58
2021/06/28 04:53:09;;;;;;;9.35;6.05;;;;;;;25.48;53.34;101080.13;5053320;28;20029;-58
2021/06/28 04:55:35;;;;;;;10.20;6.38;;;;;;;25.59;53.30;101070.34;5053028;28;20029;-59
2021/06/28 04:58:00;;;;;;;10.32;6.22;;;;;;;25.73;53.24;101072.78;5053369;28;20131;-59
2021/06/28 05:00:26;;;;;;;11.38;6.75;;;;;;;25.87;52.72;101073.53;5053311;28;20033;-60
2021/06/28 05:02:54;;;;;;;13.80;6.93;;;;;;;26.00;53.21;101067.91;5053287;28;20389;-59
2021/06/28 05:05:20;;;;;;;10.65;7.13;;;;;;;26.17;52.93;101076.47;5035357;28;20037;-59
2021/06/28 05:07:46;;;;;;;9.05;6.63;;;;;;;26.32;52.60;101066.81;5057846;28;20074;-59
2021/06/28 05:10:14;;;;;;;9.32;6.15;;;;;;;26.46;52.49;101060.13;5039123;28;20104;-59
2021/06/28 05:12:42;;;;;;;10.73;6.93;;;;;;;26.54;52.33;101058.97;5057709;28;20033;-59
2021/06/28 05:15:10;;;;;;;10.40;6.53;;;;;;;26.71;51.85;101056.47;5038811;28;20077;-59
2021/06/28 05:17:35;;;;;;;10.63;6.63;;;;;;;26.94;51.76;101060.22;5038722;28;20068;-59
2021/06/28 05:20:03;;;;;;;9.40;6.72;;;;;;;27.10;52.45;101058.75;5056631;28;20407;-58
2021/06/28 05:22:30;;;;;;;12.50;7.95;;;;;;;27.21;51.67;101059.88;5056941;28;20036;-60
2021/06/28 05:24:57;;;;;;;10.95;7.07;;;;;;;27.40;52.36;101064.25;5056828;28;20071;-59
2021/06/28 05:27:24;;;;;;;9.88;6.03;;;;;;;27.56;51.38;101055.38;5054869;28;20053;-59
2021/06/28 05:29:55;;;;;;;16.40;8.25;;;;;;;27.74;50.85;101061.66;5057039;28;20044;-59
2021/06/28 05:32:22;;;;;;;10.95;7.05;;;;;;;27.93;50.94;101056.91;5056664;28;20128;-59
2021/06/28 05:34:48;;;;;;;10.70;6.50;;;;;;;27.98;51.87;101061.69;5056563;28;20021;-59
2021/06/28 05:37:13;;;;;;;10.55;7.28;;;;;;;28.09;51.80;101053.47;5056495;28;20496;-58
2021/06/28 05:39:38;;;;;;;14.70;7.20;;;;;;;28.21;51.07;101047.97;5056487;28;20399;-60
2021/06/28 05:42:04;;;;;;;10.30;6.85;;;;;;;28.22;51.74;101044.97;5056821;28;20044;-60
2021/06/28 05:44:29;;;;;;;14.15;7.63;;;;;;;28.23;51.34;101043.88;5056935;28;20052;-60
2021/06/28 05:46:55;;;;;;;13.15;7.05;;;;;;;28.46;51.36;101044.94;5041003;28;20041;-60
2021/06/28 05:49:20;;;;;;;12.10;6.75;;;;;;;28.67;50.59;101045.19;5036380;28;20029;-59
2021/06/28 05:51:45;;;;;;;12.82;6.82;;;;;;;28.82;50.23;101039.16;5036028;28;20029;-60
2021/06/28 05:54:11;;;;;;;13.35;7.22;;;;;;;28.82;50.44;101033.66;5036299;28;20402;-60
2021/06/28 05:56:36;;;;;;;8.98;7.07;;;;;;;28.95;49.81;101036.13;5035955;28;20026;-59
2021/06/28 05:59:01;;;;;;;11.65;6.80;;;;;;;29.20;49.61;101039.38;5036187;28;20026;-58
2021/06/28 06:01:27;;;;;;;10.70;7.22;;;;;;;29.38;50.21;101042.00;5035833;28;20108;-60
2021/06/28 06:03:52;;;;;;;11.32;7.13;;;;;;;29.51;49.82;101029.78;5036111;28;20030;-60
2021/06/28 06:06:18;;;;;;;13.70;7.25;;;;;;;29.70;49.14;101034.00;5035990;28;20041;-60
2021/06/28 06:08:43;;;;;;;11.45;6.97;;;;;;;29.89;49.78;101041.00;5035763;28;20041;-58
2021/06/28 06:11:08;;;;;;;14.63;7.28;;;;;;;30.06;49.08;101032.72;5035642;28;20068;-59
2021/06/28 06:13:34;;;;;;;13.05;7.60;;;;;;;30.25;48.84;101030.50;5017974;28;20394;-60
2021/06/28 06:16:00;;;;;;;11.98;7.03;;;;;;;30.49;48.64;101027.28;5035883;28;20076;-59
2021/06/28 06:18:25;;;;;;;10.73;7.03;;;;;;;30.66;48.51;101024.47;5035391;28;20041;-59
2021/06/28 06:20:51;;;;;;;10.18;7.18;;;;;;;30.77;48.44;101034.56;5035976;28;20030;-60
2021/06/28 06:23:16;;;;;;;14.43;6.70;;;;;;;30.87;48.26;101033.88;5035789;28;20029;-60
2021/06/28 06:25:45;;;;;;;10.38;7.65;;;;;;;30.93;48.18;101030.13;5035725;28;20033;-60
2021/06/28 06:28:11;;;;;;;9.70;6.72;;;;;;;31.00;48.10;101033.50;5050661;28;20471;-60
2021/06/28 06:30:36;;;;;;;10.65;7.03;;;;;;;30.85;48.30;101036.06;5055531;28;20052;-59
2021/06/28 06:33:03;;;;;;;11.85;7.32;;;;;;;30.78;48.38;101040.94;5055531;28;20382;-60
2021/06/28 06:35:28;;;;;;;10.43;7.20;;;;;;;30.73;48.24;101038.97;5055869;28;20037;-60
2021/06/28 06:37:55;;;;;;;9.93;7.53;;;;;;;30.73;48.08;101051.97;5070513;28;20504;-60
2021/06/28 06:40:21;;;;;;;9.35;6.80;;;;;;;30.79;48.46;101039.88;5055109;28;20024;-59
2021/06/28 06:42:47;;;;;;;10.23;7.13;;;;;;;30.77;47.87;101050.34;5055062;28;20033;-59
2021/06/28 06:45:14;;;;;;;11.75;6.93;;;;;;;30.73;48.08;101038.97;5055753;28;20482;-59
2021/06/28 06:47:40;;;;;;;9.23;7.00;;;;;;;30.58;48.46;101042.34;5055022;28;20057;-60
2021/06/28 06:50:06;;;;;;;12.45;6.70;;;;;;;30.48;48.57;101046.91;5054994;28;20040;-59
2021/06/28 06:52:31;;;;;;;10.88;7.32;;;;;;;30.37;48.86;101047.84;5055091;28;20381;-60
2021/06/28 06:54:56;;;;;;;14.90;7.82;;;;;;;30.27;49.20;101059.56;5055113;28;20068;-60
2021/06/28 06:57:22;;;;;;;11.30;7.68;;;;;;;30.36;48.72;101065.50;5054775;28;20029;-59
2021/06/28 06:59:47;;;;;;;10.50;7.05;;;;;;;30.68;48.11;101054.66;5055020;28;20057;-59
2021/06/28 07:02:12;;;;;;;10.82;7.65;;;;;;;31.07;47.67;101067.38;5054984;28;20040;-59
2021/06/28 07:04:38;;;;;;;19.60;7.68;;;;;;;31.43;47.31;101077.75;5053425;28;20116;-60
2021/06/28 07:07:03;;;;;;;12.90;7.32;;;;;;;31.78;46.98;101068.97;5054642;28;20032;-60
2021/06/28 07:09:29;;;;;;;11.95;7.07;;;;;;;31.57;47.24;101067.13;5054486;28;20465;-60
2021/06/28 07:11:55;;;;;;;11.02;7.40;;;;;;;31.45;47.12;101061.72;5053304;28;20028;-59
2021/06/28 07:14:21;;;;;;;12.50;7.65;;;;;;;31.77;46.90;101060.94;5048156;28;20560;-60
2021/06/28 07:16:47;;;;;;;11.27;7.65;;;;;;;32.09;46.29;101061.78;5039469;28;20025;-60
2021/06/28 07:19:13;;;;;;;13.38;7.38;;;;;;;32.21;46.97;101066.06;5036954;28;20021;-60
2021/06/28 07:21:38;;;;;;;9.10;6.88;;;;;;;32.28;46.17;101061.13;5054374;28;20021;-60
2021/06/28 07:24:06;;;;;;;11.48;6.93;;;;;;;32.35;46.91;101066.44;5036782;28;20040;-60
2021/06/28 07:26:32;;;;;;;11.80;6.95;;;;;;;32.79;46.35;101070.59;5054642;28;20350;-59
2021/06/28 07:28:58;;;;;;;10.38;6.35;;;;;;;32.67;45.61;101067.22;5048623;28;20107;-60
2021/06/28 07:31:24;;;;;;;8.32;6.28;;;;;;;32.61;45.86;101051.63;5034524;28;20029;-59
2021/06/28 07:33:50;;;;;;;10.52;6.72;;;;;;;32.67;45.70;101056.09;5034454;28;20029;-59
2021/06/28 07:36:15;;;;;;;9.77;6.63;;;;;;;32.68;45.84;101060.56;5034133;28;20036;-59
2021/06/28 07:38:41;;;;;;;11.48;6.70;;;;;;;32.65;45.68;101061.09;5034488;28;20018;-59
2021/06/28 07:41:06;;;;;;;9.82;6.55;;;;;;;32.53;46.14;101063.22;5034616;28;20029;-60
2021/06/28 07:43:32;;;;;;;9.98;6.57;;;;;;;32.38;46.27;101065.06;5034649;28;20025;-60
2021/06/28 07:45:58;;;;;;;8.15;5.93;;;;;;;32.17;45.95;101061.31;5034045;28;20493;-60
2021/06/28 07:48:23;;;;;;;9.15;6.25;;;;;;;31.95;46.73;101060.53;5034127;28;20057;-60
2021/06/28 07:50:49;;;;;;;13.48;6.97;;;;;;;31.77;46.21;101060.94;5034467;28;20029;-60
2021/06/28 07:53:16;;;;;;;9.60;6.68;;;;;;;31.61;46.75;101063.56;5033653;28;20041;-60
2021/06/28 07:55:42;;;;;;;8.68;5.95;;;;;;;31.55;46.34;101064.59;5034127;28;20040;-60
2021/06/28 07:58:08;;;;;;;8.23;6.35;;;;;;;31.57;46.49;101062.44;5016125;28;20497;-59
2021/06/28 08:00:33;;;;;;;10.50;6.78;;;;;;;31.66;46.39;101058.06;5033813;28;20130;-60
2021/06/28 08:03:00;;;;;;;13.82;7.22;;;;;;;31.76;46.21;101056.50;5032842;28;20029;-60
2021/06/28 08:05:25;;;;;;;8.95;6.97;;;;;;;31.86;46.54;101062.13;5033724;28;20104;-59
2021/06/28 08:07:50;;;;;;;11.27;6.72;;;;;;;32.18;45.27;101057.44;5033755;28;20057;-60
2021/06/28 08:10:16;;;;;;;10.50;7.20;;;;;;;32.53;44.93;101059.59;5034318;28;20451;-60
2021/06/28 08:12:42;;;;;;;12.43;7.68;;;;;;;32.68;45.61;101057.78;5032495;28;20029;-59
2021/06/28 08:15:08;;;;;;;11.02;7.65;;;;;;;33.21;44.67;101058.59;5034301;28;20021;-59
2021/06/28 08:17:34;;;;;;;14.50;9.13;;;;;;;33.22;45.10;101052.75;5034350;28;20033;-60
2021/06/28 08:19:59;;;;;;;10.60;8.43;;;;;;;33.26;44.59;101051.09;5016772;28;20034;-59
2021/06/28 08:22:24;;;;;;;10.70;7.65;;;;;;;33.44;44.43;101052.53;5032323;28;20079;-59
2021/06/28 08:24:50;;;;;;;12.98;8.23;;;;;;;33.43;44.27;101053.63;5033513;28;20064;-60
2021/06/28 08:27:15;;;;;;;10.55;7.63;;;;;;;33.43;44.71;101064.75;5033634;28;20033;-60
2021/06/28 08:29:42;;;;;;;11.95;6.80;;;;;;;33.38;43.49;101067.53;5039318;28;20063;-60
2021/06/28 08:32:07;;;;;;;10.50;7.70;;;;;;;33.37;44.48;101061.13;5033640;28;20042;-60
2021/06/28 08:34:33;;;;;;;14.07;8.43;;;;;;;33.27;44.70;101054.72;5033363;28;20078;-60
2021/06/28 08:36:58;;;;;;;13.50;7.65;;;;;;;33.17;43.43;101054.66;5033617;28;20472;-60
2021/06/28 08:39:24;;;;;;;10.23;7.55;;;;;;;33.11;43.81;101047.47;5032687;28;20057;-60
2021/06/28 08:41:52;;;;;;;11.27;7.50;;;;;;;33.10;44.20;101046.63;5037681;28;20128;-59
2021/06/28 08:44:18;;;;;;;12.73;7.43;;;;;;;33.05;44.55;101042.97;5037344;28;20030;-60
2021/06/28 08:46:44;;;;;;;8.07;6.53;;;;;;;33.03;43.92;101053.50;5037222;28;20041;-59
2021/06/28 08:49:10;;;;;;;10.15;7.68;;;;;;;32.97;44.11;101052.63;5048641;28;20078;-60
2021/06/28 08:51:36;;;;;;;11.98;7.70;;;;;;;32.92;43.45;101062.88;5057657;28;20381;-60
2021/06/28 08:54:09;;;;;;;10.68;7.82;;;;;;;32.90;44.64;101073.44;5057109;28;20110;-60
2021/06/28 08:56:36;;;;;;;11.15;7.22;;;;;;;33.03;43.39;101070.97;5057338;28;20171;-60
2021/06/28 08:59:06;;;;;;;8.32;6.68;;;;;;;33.42;43.43;101066.69;5057579;28;20028;-59
2021/06/28 09:01:33;;;;;;;10.63;6.95;;;;;;;33.87;43.45;101062.31;5039538;28;20028;-59
2021/06/28 09:03:58;;;;;;;9.63;7.97;;;;;;;33.77;43.47;101065.97;5057203;28;20036;-60
2021/06/28 09:06:25;;;;;;;10.43;7.43;;;;;;;33.66;42.83;101064.28;5056960;28;20124;-60
2021/06/28 09:09:01;;;;;;;10.32;7.45;;;;;;;33.63;43.38;101073.16;5038994;28;20065;-60
2021/06/28 09:11:27;;;;;;;12.15;7.60;;;;;;;33.55;43.45;101076.47;5056832;28;20051;-60
2021/06/28 09:13:56;;;;;;;11.20;6.18;;;;;;;33.36;44.16;101078.91;5057023;28;20033;-59
2021/06/28 09:16:24;;;;;;;7.82;5.60;;;;;;;33.17;43.23;101090.78;5056698;28;20033;-60
2021/06/28 09:18:52;;;;;;;6.68;5.07;;;;;;;33.01;43.85;101086.25;5056995;28;20052;-60
2021/06/28 09:21:29;;;;;;;7.93;5.85;;;;;;;32.80;44.14;101086.13;5056914;28;20029;-60
2021/06/28 09:23:56;;;;;;;8.05;6.47;;;;;;;32.62;43.95;101094.94;5052335;28;20025;-59
2021/06/28 09:26:27;;;;;;;8.73;6.53;;;;;;;32.47;45.04;101093.97;5035723;28;20355;-60
2021/06/28 09:28:55;;;;;;;8.90;6.53;;;;;;;32.37;45.18;101094.72;5059242;28;20075;-60
2021/06/28 09:31:43;;;;;;;12.75;6.93;;;;;;;32.28;44.41;101101.88;5076397;28;20362;-60
2021/06/28 09:34:11;;;;;;;14.13;6.88;;;;;;;32.15;44.87;101094.84;5076645;28;20099;-60
2021/06/28 09:36:47;;;;;;;14.73;7.50;;;;;;;32.08;45.18;101090.63;5076862;28;20029;-60
2021/06/28 09:39:27;;;;;;;10.07;6.38;;;;;;;32.05;45.56;101091.16;5076454;28;20095;-60
2021/06/28 09:41:58;;;;;;;8.13;6.25;;;;;;;31.96;45.21;101098.25;5076266;28;20025;-60
2021/06/28 09:44:29;;;;;;;10.98;6.50;;;;;;;31.86;45.58;101100.91;5076461;28;20128;-60
2021/06/28 09:47:08;;;;;;;9.85;5.75;;;;;;;31.69;45.34;101093.56;5076444;28;20035;-59
2021/06/28 09:49:33;;;;;;;12.13;8.32;;;;;;;31.60;45.97;101099.84;5076442;28;20044;-59
2021/06/28 09:51:59;;;;;;;10.73;6.78;;;;;;;31.49;46.33;101098.88;5075502;28;20029;-60
2021/06/28 09:54:24;;;;;;;10.32;6.70;;;;;;;31.39;46.51;101104.28;5076334;28;20032;-60
2021/06/28 09:56:52;;;;;;;10.02;6.60;;;;;;;31.21;46.73;101096.34;5075984;28;20021;-60
2021/06/28 09:59:28;;;;;;;9.35;6.28;;;;;;;31.03;47.43;101104.97;5076204;28;20020;-60
2021/06/28 10:02:28;;;;;;;8.57;6.72;;;;;;;30.82;47.74;101103.81;5075835;28;20035;-60
2021/06/28 10:05:22;;;;;;;7.55;5.88;;;;;;;30.65;48.36;101104.97;5076120;28;20035;-60
2021/06/28 10:07:47;;;;;;;8.80;5.60;;;;;;;30.47;48.81;101101.38;5076014;28;20111;-59
2021/06/28 10:10:13;;;;;;;12.57;6.80;;;;;;;30.31;48.90;101101.38;5075958;28;20028;-60
2021/06/28 10:12:43;;;;;;;12.13;6.47;;;;;;;30.14;49.45;101097.78;5075676;28;20028;-60
2021/06/28 10:15:10;;;;;;;13.20;6.70;;;;;;;29.96;49.41;101105.22;5057709;28;20393;-59
2021/06/28 10:17:37;;;;;;;12.07;6.47;;;;;;;29.83;49.79;101101.94;5075562;28;20020;-60
2021/06/28 10:20:04;;;;;;;10.90;7.53;;;;;;;29.69;50.17;101100.53;5057950;28;20023;-59
2021/06/28 10:22:30;;;;;;;9.90;6.18;;;;;;;29.56;50.15;101098.09;5040907;28;20488;-62
2021/06/28 10:24:55;;;;;;;10.15;7.10;;;;;;;29.37;50.67;101095.50;5058107;28;20021;-65
2021/06/28 10:27:21;;;;;;;15.40;7.10;;;;;;;29.14;50.59;101098.34;5041319;28;20463;-62
2021/06/28 10:29:47;;;;;;;11.98;7.65;;;;;;;29.04;51.06;101078.81;5052194;28;20041;-64
2021/06/28 10:32:13;;;;;;;19.50;8.07;;;;;;;29.13;51.12;101076.50;5054690;28;20129;-64
2021/06/28 10:34:49;;;;;;;13.52;8.07;;;;;;;29.29;50.63;101067.47;5070938;28;20040;-61
2021/06/28 10:37:43;;;;;;;12.07;7.72;;;;;;;29.99;50.31;101059.66;5070604;28;20036;-58
2021/06/28 10:40:27;;;;;;;11.15;8.45;;;;;;;30.70;49.66;101052.47;5053981;28;20520;-59
2021/06/28 10:42:55;;;;;;;11.85;8.52;;;;;;;31.38;49.07;101050.00;5055487;28;20021;-59
2021/06/28 10:45:39;;;;;;;9.75;7.22;;;;;;;32.01;48.86;101037.34;5055342;28;20403;-58
2021/06/28 10:48:14;;;;;;;11.13;7.60;;;;;;;31.88;49.42;101035.00;5054970;28;20028;-59
2021/06/28 10:50:54;;;;;;;12.32;8.05;;;;;;;32.13;49.47;101035.22;5051365;28;20021;-58
2021/06/28 10:53:28;;;;;;;10.07;7.30;;;;;;;31.90;49.17;101036.41;5043657;28;20053;-58
2021/06/28 10:55:54;;;;;;;7.45;4.93;;;;;;;31.96;49.52;101026.19;5035037;28;20037;-58
2021/06/28 10:58:24;;;;;;;9.95;5.53;;;;;;;31.82;49.95;101019.41;5035455;28;20099;-59
2021/06/28 11:01:11;;;;;;;7.72;5.10;;;;;;;31.66;50.05;101030.34;5048007;28;20025;-59
2021/06/28 11:03:36;;;;;;;8.73;5.47;;;;;;;31.43;50.19;101022.38;5054666;28;20025;-58
2021/06/28 11:06:14;;;;;;;6.93;5.35;;;;;;;31.22;50.62;101044.53;5039593;28;20033;-59
2021/06/28 11:09:02;;;;;;;10.98;6.20;;;;;;;30.97;50.65;101047.84;5049892;28;20105;-58
2021/06/28 11:11:42;;;;;;;8.95;6.63;;;;;;;30.74;50.82;101045.34;5034903;28;20044;-58
2021/06/28 11:14:08;;;;;;;12.95;7.15;;;;;;;30.55;50.52;101048.41;5034914;28;20112;-59
2021/06/28 11:16:34;;;;;;;6.45;5.40;;;;;;;30.74;50.66;101050.88;5016911;28;20423;-59
2021/06/28 11:19:00;;;;;;;7.15;4.97;;;;;;;31.30;49.18;101061.53;5034478;28;20030;-59
2021/06/28 11:21:40;;;;;;;4.22;3.78;;;;;;;32.24;48.29;101071.09;5034703;28;20026;-59